Time;durP1;ratioP1;P1;durP2;ratioP2;P2;SDS_P1;SDS_P2;PMS_P1;PMS_P2;Temp;Humidity;BMP_temperature;BMP_pressure;BME280_temperature;BME280_humidity;BME280_pressure;Samples;Min_cycle;Max_cycle;Signal;HPM_P1;HPM_P2
2023/05/02 00:01:26;;;;;;;21.37;8.87;;;;;;;11.73;82.75;100808.84;5094284;28;20461;-77
2023/05/02 00:03:53;;;;;;;23.10;11.20;;;;;;;11.72;82.80;100804.53;5094012;28;20535;-77
2023/05/02 00:06:20;;;;;;;27.50;10.90;;;;;;;11.68;83.26;100801.63;5094283;28;20483;-77
2023/05/02 00:08:48;;;;;;;31.57;13.43;;;;;;;11.65;83.25;100799.53;5094033;28;20536;-77
2023/05/02 00:11:16;;;;;;;27.73;13.70;;;;;;;11.60;83.17;100805.88;5094345;28;20448;-77
2023/05/02 00:13:43;;;;;;;39.67;16.77;;;;;;;11.54;83.34;100798.13;5094536;28;20471;-77
2023/05/02 00:16:10;;;;;;;34.03;16.00;;;;;;;11.52;83.27;100805.78;5094451;28;20461;-77
2023/05/02 00:18:37;;;;;;;34.00;16.50;;;;;;;11.44;84.18;100803.75;5094013;28;20570;-77
2023/05/02 00:21:04;;;;;;;23.97;12.90;;;;;;;11.42;82.81;100804.06;5094110;28;20530;-77
2023/05/02 00:23:30;;;;;;;22.43;10.47;;;;;;;11.31;81.25;100799.94;5094073;28;20534;-76
2023/05/02 00:25:57;;;;;;;25.43;9.77;;;;;;;11.29;78.52;100804.88;5092819;28;20508;-77
2023/05/02 00:28:25;;;;;;;16.00;7.53;;;;;;;11.22;78.36;100813.38;5093934;28;20468;-77
2023/05/02 00:30:52;;;;;;;13.20;7.30;;;;;;;11.10;78.52;100799.50;5093632;28;20448;-77
2023/05/02 00:33:19;;;;;;;17.17;7.50;;;;;;;11.01;78.71;100802.09;5094008;28;20457;-77
2023/05/02 00:35:45;;;;;;;17.03;8.57;;;;;;;10.96;79.39;100804.91;5093599;28;20571;-77
2023/05/02 00:38:12;;;;;;;17.13;7.30;;;;;;;10.88;80.40;100802.06;5093784;28;20527;-77
2023/05/02 00:40:46;;;;;;;15.00;7.10;;;;;;;10.82;81.47;100794.03;5093545;28;20428;-77
2023/05/02 00:43:13;;;;;;;15.60;7.70;;;;;;;10.84;82.71;100804.56;5093744;28;20436;-77
2023/05/02 00:45:42;;;;;;;13.60;6.73;;;;;;;10.78;83.82;100787.59;5093738;28;20463;-77
2023/05/02 00:48:09;;;;;;;16.57;7.47;;;;;;;10.81;83.67;100805.97;5093364;28;20535;-77
2023/05/02 00:50:37;;;;;;;13.03;7.00;;;;;;;10.80;84.11;100800.84;5093351;28;20468;-77
2023/05/02 00:53:05;;;;;;;12.33;6.43;;;;;;;10.80;83.99;100796.25;5093601;28;20524;-77
2023/05/02 00:55:33;;;;;;;11.40;6.03;;;;;;;10.86;83.60;100802.38;5093198;28;20464;-77
2023/05/02 00:58:00;;;;;;;10.40;4.90;;;;;;;10.84;84.03;100797.25;5093119;28;20439;-77
2023/05/02 01:00:52;;;;;;;14.57;5.83;;;;;;;10.90;84.11;100799.88;5093512;28;20531;-77
2023/05/02 01:03:31;;;;;;;11.30;5.90;;;;;;;10.99;83.34;100796.19;5093584;28;20448;-77
2023/05/02 01:06:10;;;;;;;12.13;5.67;;;;;;;11.01;84.01;100801.31;5093146;28;20488;-77
2023/05/02 01:08:45;;;;;;;12.27;6.20;;;;;;;11.04;83.84;100811.56;5093337;28;20466;-77
2023/05/02 01:11:16;;;;;;;13.13;5.80;;;;;;;11.09;83.63;100806.03;5093227;28;20408;-77
2023/05/02 01:13:44;;;;;;;14.33;6.43;;;;;;;11.15;83.42;100806.75;5093145;28;20931;-77
2023/05/02 01:16:12;;;;;;;14.90;5.80;;;;;;;11.20;83.07;100809.34;5093079;28;20911;-77
2023/05/02 01:18:42;;;;;;;11.63;5.00;;;;;;;11.22;82.37;100802.53;5093229;28;20484;-77
2023/05/02 01:21:10;;;;;;;11.63;4.90;;;;;;;11.25;81.16;100810.09;5093752;28;20440;-77
2023/05/02 01:23:46;;;;;;;13.00;4.53;;;;;;;11.24;77.03;100813.88;5093330;28;20527;-77
2023/05/02 01:26:20;;;;;;;13.03;4.37;;;;;;;11.23;75.59;100812.28;5092950;28;20464;-78
2023/05/02 01:29:01;;;;;;;8.87;4.23;;;;;;;11.23;74.59;100817.69;5093509;28;20432;-77
2023/05/02 01:31:31;;;;;;;12.13;4.50;;;;;;;11.25;73.54;100817.41;5093231;28;20440;-77
2023/05/02 01:34:00;;;;;;;12.70;4.80;;;;;;;11.21;73.14;100822.63;5093198;28;20876;-78
2023/05/02 01:36:30;;;;;;;10.43;4.37;;;;;;;11.21;73.59;100822.63;5093868;28;20506;-77
2023/05/02 01:38:58;;;;;;;7.87;3.83;;;;;;;11.14;73.75;100821.41;5097190;28;20476;-77
2023/05/02 01:41:26;;;;;;;7.83;3.90;;;;;;;11.15;74.84;100831.13;5096752;28;20448;-78
2023/05/02 01:43:55;;;;;;;7.13;3.60;;;;;;;11.14;76.38;100837.66;5096837;28;20432;-77
2023/05/02 01:46:25;;;;;;;12.33;4.50;;;;;;;11.06;78.37;100836.44;5096596;28;20551;-78
2023/05/02 01:48:53;;;;;;;10.30;4.37;;;;;;;11.04;79.13;100827.81;5097244;28;20525;-77
2023/05/02 01:51:21;;;;;;;10.83;3.90;;;;;;;11.08;79.98;100840.47;5096627;28;20492;-77
2023/05/02 01:53:49;;;;;;;9.50;3.80;;;;;;;11.03;80.12;100832.44;5096564;28;20887;-77
2023/05/02 01:56:18;;;;;;;9.30;3.90;;;;;;;11.05;79.16;100842.97;5096715;28;20478;-77
2023/05/02 01:58:47;;;;;;;9.73;3.50;;;;;;;11.13;78.52;100847.72;5096367;28;21005;-77
2023/05/02 02:01:16;;;;;;;10.10;3.97;;;;;;;11.20;78.31;100853.56;5096619;28;20489;-77
2023/05/02 02:03:46;;;;;;;11.87;4.57;;;;;;;11.23;77.76;100852.94;5096667;28;20523;-77
2023/05/02 02:06:14;;;;;;;10.27;3.90;;;;;;;11.23;77.66;100858.38;5096521;28;20557;-76
2023/05/02 02:08:41;;;;;;;8.30;3.70;;;;;;;11.21;77.95;100855.16;5096636;28;20524;-77
2023/05/02 02:11:11;;;;;;;8.20;2.77;;;;;;;11.26;77.41;100857.78;5096237;28;20599;-77
2023/05/02 02:13:45;;;;;;;7.60;3.03;;;;;;;11.25;77.70;100861.59;5096558;28;20428;-77
2023/05/02 02:16:19;;;;;;;8.50;3.13;;;;;;;11.26;78.25;100862.41;5096419;28;20496;-77
2023/05/02 02:18:47;;;;;;;10.20;3.40;;;;;;;11.20;78.26;100858.16;5096058;28;20504;-77
2023/05/02 02:21:18;;;;;;;8.07;3.20;;;;;;;11.23;77.95;100857.56;5096457;28;20453;-77
2023/05/02 02:23:48;;;;;;;9.17;3.13;;;;;;;11.26;78.06;100868.63;5096395;28;20433;-76
2023/05/02 02:26:17;;;;;;;9.10;3.20;;;;;;;11.29;78.07;100872.66;5096454;28;20539;-77
2023/05/02 02:28:44;;;;;;;8.90;3.77;;;;;;;11.24;78.08;100867.31;5095982;28;20529;-77
2023/05/02 02:31:11;;;;;;;9.00;3.57;;;;;;;11.27;77.43;100869.44;5095874;28;20963;-77
2023/05/02 02:33:38;;;;;;;10.10;3.47;;;;;;;11.24;77.41;100873.53;5095892;28;20542;-77
2023/05/02 02:36:11;;;;;;;6.40;2.33;;;;;;;11.19;77.58;100879.03;5095619;28;20552;-77
2023/05/02 02:38:44;;;;;;;7.17;3.17;;;;;;;11.25;76.96;100879.78;5096106;28;20417;-77
2023/05/02 02:41:16;;;;;;;12.00;3.33;;;;;;;11.25;75.68;100882.50;5096012;28;20515;-77
2023/05/02 02:43:52;;;;;;;6.77;2.40;;;;;;;11.29;75.97;100891.66;5095917;28;20790;-77
2023/05/02 02:46:34;;;;;;;9.27;3.40;;;;;;;11.25;76.31;100891.44;5095572;28;20468;-77
2023/05/02 02:49:15;;;;;;;7.80;3.07;;;;;;;11.22;76.63;100894.72;5094915;28;20427;-78
2023/05/02 02:51:49;;;;;;;8.23;3.20;;;;;;;11.19;76.22;100905.34;5096100;28;20494;-77
2023/05/02 02:54:22;;;;;;;7.23;3.30;;;;;;;11.11;76.19;100909.53;5095986;28;20503;-78
2023/05/02 02:56:58;;;;;;;8.00;2.70;;;;;;;11.04;77.56;100919.97;5095874;28;20455;-77
2023/05/02 02:59:29;;;;;;;9.90;3.60;;;;;;;10.98;78.97;100921.16;5095921;28;20494;-77
2023/05/02 03:02:03;;;;;;;9.30;3.70;;;;;;;10.91;80.61;100920.72;5095785;28;20516;-78
2023/05/02 03:04:31;;;;;;;9.43;3.23;;;;;;;10.89;81.06;100931.88;5095378;28;20528;-77
2023/05/02 03:07:00;;;;;;;7.30;3.37;;;;;;;10.86;81.46;100927.84;5095499;28;20447;-77
2023/05/02 03:09:29;;;;;;;7.77;2.80;;;;;;;10.86;81.43;100941.38;5095402;28;20859;-77
2023/05/02 03:11:56;;;;;;;9.83;2.87;;;;;;;10.84;81.92;100940.06;5095397;28;20539;-77
2023/05/02 03:14:22;;;;;;;11.73;3.60;;;;;;;10.77;82.15;100948.56;5095025;28;20433;-77
2023/05/02 03:16:50;;;;;;;8.77;3.70;;;;;;;10.75;83.39;100958.06;5094979;28;20457;-77
2023/05/02 03:19:17;;;;;;;9.00;4.00;;;;;;;10.72;83.44;100961.38;5095262;28;20523;-77
2023/05/02 03:21:44;;;;;;;9.03;3.60;;;;;;;10.70;83.87;100963.56;5094945;28;20922;-77
2023/05/02 03:24:12;;;;;;;9.80;3.17;;;;;;;10.65;83.87;100969.06;5095345;28;20445;-77
2023/05/02 03:26:39;;;;;;;9.23;3.00;;;;;;;10.54;83.90;100971.91;5095069;28;20535;-78
2023/05/02 03:29:05;;;;;;;8.10;2.90;;;;;;;10.52;84.40;100962.47;5094691;28;20448;-77
2023/05/02 03:31:32;;;;;;;12.37;3.80;;;;;;;10.49;85.19;100965.75;5095251;28;20484;-77
2023/05/02 03:33:58;;;;;;;8.83;2.60;;;;;;;10.40;85.33;100964.78;5094955;28;20801;-78
2023/05/02 03:36:26;;;;;;;7.70;3.20;;;;;;;10.28;86.23;100979.56;5119535;22;20576;-66
2023/05/02 03:38:52;;;;;;;9.83;3.40;;;;;;;10.29;86.24;100980.34;5094220;28;20491;-67
2023/05/02 03:41:20;;;;;;;7.50;2.97;;;;;;;10.24;86.08;100980.38;5094439;28;20445;-67
2023/05/02 03:43:47;;;;;;;7.37;3.00;;;;;;;10.15;86.85;100984.81;5094466;28;20453;-68
2023/05/02 03:46:14;;;;;;;12.53;3.17;;;;;;;10.12;87.19;100991.63;5094325;28;20523;-68
2023/05/02 03:48:40;;;;;;;10.00;3.87;;;;;;;10.03;87.80;100994.13;5094429;28;20492;-68
2023/05/02 03:51:08;;;;;;;8.93;3.63;;;;;;;10.03;88.17;100993.34;5094425;28;20437;-67
2023/05/02 03:53:35;;;;;;;7.43;3.17;;;;;;;10.02;87.43;100999.84;5094167;28;20951;-67
2023/05/02 03:56:02;;;;;;;8.07;3.07;;;;;;;9.96;85.36;101003.69;5094268;28;20456;-68
2023/05/02 03:58:30;;;;;;;11.20;3.43;;;;;;;9.84;85.21;100995.97;5093990;28;20503;-66
2023/05/02 04:00:56;;;;;;;9.53;3.27;;;;;;;9.81;84.60;100991.13;5094068;28;20480;-66
2023/05/02 04:03:23;;;;;;;8.43;3.40;;;;;;;9.71;84.84;100999.34;5094295;28;20444;-65
2023/05/02 04:05:51;;;;;;;7.33;2.60;;;;;;;9.69;85.29;101013.13;5094439;28;20437;-67
2023/05/02 04:08:17;;;;;;;12.40;3.90;;;;;;;9.71;84.81;101018.28;5094336;28;20452;-67
2023/05/02 04:10:44;;;;;;;8.30;3.47;;;;;;;9.69;85.91;101010.44;5094185;28;20479;-67
2023/05/02 04:13:11;;;;;;;7.50;3.03;;;;;;;9.80;86.70;101017.38;5094274;28;20523;-68
2023/05/02 04:15:39;;;;;;;10.97;2.93;;;;;;;9.93;87.13;101015.91;5094134;28;20465;-67
2023/05/02 04:18:05;;;;;;;9.10;3.10;;;;;;;10.04;87.30;101019.31;5093915;28;20541;-67
2023/05/02 04:20:33;;;;;;;7.47;2.87;;;;;;;10.12;87.38;101021.38;5093555;28;20488;-67
2023/05/02 04:22:59;;;;;;;7.83;2.80;;;;;;;10.19;87.43;101029.97;5093573;28;20977;-68
2023/05/02 04:25:26;;;;;;;6.80;2.47;;;;;;;10.28;87.60;101028.28;5093881;28;20468;-67
2023/05/02 04:27:52;;;;;;;6.63;2.43;;;;;;;10.33;87.58;101025.53;5094240;28;20993;-67
2023/05/02 04:30:19;;;;;;;10.40;2.83;;;;;;;10.41;87.26;101043.03;5093995;28;20962;-67
2023/05/02 04:32:47;;;;;;;8.30;2.70;;;;;;;10.48;87.43;101042.69;5094171;28;20448;-68
2023/05/02 04:35:16;;;;;;;7.50;2.73;;;;;;;10.56;86.95;101039.34;5093597;28;20456;-67
2023/05/02 04:37:42;;;;;;;5.87;1.93;;;;;;;10.61;85.53;101048.19;5093310;28;20522;-67
2023/05/02 04:40:10;;;;;;;6.40;2.03;;;;;;;10.65;85.23;101048.44;5093054;28;20483;-67
2023/05/02 04:42:36;;;;;;;5.97;2.03;;;;;;;10.75;83.94;101048.28;5093514;28;20448;-68
2023/05/02 04:45:04;;;;;;;6.70;1.93;;;;;;;10.92;82.56;101052.44;5093602;28;20539;-70
2023/05/02 04:47:30;;;;;;;6.60;2.17;;;;;;;10.96;82.17;101056.97;5093272;28;20464;-68
2023/05/02 04:49:58;;;;;;;7.80;2.60;;;;;;;11.09;81.75;101058.97;5093368;28;20493;-68
2023/05/02 04:52:25;;;;;;;8.47;2.10;;;;;;;11.15;80.82;101061.59;5093336;28;20455;-66
2023/05/02 04:54:51;;;;;;;6.90;2.40;;;;;;;11.24;80.10;101059.84;5092972;28;20898;-67
2023/05/02 04:57:18;;;;;;;7.50;2.40;;;;;;;11.31;79.29;101074.66;5093237;28;20456;-67
2023/05/02 04:59:44;;;;;;;5.80;1.83;;;;;;;11.36;78.31;101073.75;5093234;28;20914;-68
2023/05/02 05:02:12;;;;;;;6.97;2.53;;;;;;;11.41;77.93;101081.81;5093218;28;20462;-67
2023/05/02 05:04:38;;;;;;;6.63;2.10;;;;;;;11.34;78.03;101086.81;5093140;28;20448;-67
2023/05/02 05:07:06;;;;;;;6.47;1.70;;;;;;;11.42;77.58;101085.34;5093126;28;20454;-67
2023/05/02 05:09:33;;;;;;;7.60;2.23;;;;;;;11.49;77.10;101096.63;5092834;28;20483;-67
2023/05/02 05:12:00;;;;;;;8.97;3.10;;;;;;;11.45;77.50;101099.13;5094971;28;20935;-68
2023/05/02 05:14:27;;;;;;;6.23;2.00;;;;;;;11.47;77.22;101098.84;5097324;28;20499;-68
2023/05/02 05:16:54;;;;;;;6.00;2.20;;;;;;;11.48;77.28;101101.25;5097265;28;20440;-68
2023/05/02 05:19:20;;;;;;;12.37;2.73;;;;;;;11.46;77.81;101105.34;5097117;28;20861;-67
2023/05/02 05:21:47;;;;;;;5.90;1.97;;;;;;;11.45;78.34;101107.25;5097179;28;20826;-67
2023/05/02 05:24:15;;;;;;;6.50;2.00;;;;;;;11.47;78.21;101113.22;5097169;28;20448;-68
2023/05/02 05:26:41;;;;;;;8.97;3.07;;;;;;;11.53;78.51;101108.50;5096864;28;20958;-67
2023/05/02 05:29:08;;;;;;;7.17;2.73;;;;;;;11.61;77.58;101119.50;5096679;28;20482;-67
2023/05/02 05:31:35;;;;;;;7.30;2.07;;;;;;;11.66;77.75;101125.97;5096998;28;20861;-69
2023/05/02 05:34:01;;;;;;;7.93;2.60;;;;;;;11.75;77.11;101130.41;5096933;28;20464;-68
2023/05/02 05:36:28;;;;;;;7.00;2.10;;;;;;;11.81;77.44;101131.94;5096567;28;20621;-67
2023/05/02 05:38:55;;;;;;;7.57;2.80;;;;;;;11.84;77.21;101139.53;5096465;28;20560;-66
2023/05/02 05:41:23;;;;;;;6.83;2.10;;;;;;;11.86;77.54;101134.63;5096411;28;21025;-66
2023/05/02 05:43:50;;;;;;;6.60;2.57;;;;;;;11.95;77.60;101152.94;5096733;28;20543;-65
2023/05/02 05:46:16;;;;;;;7.33;2.43;;;;;;;11.94;78.13;101151.31;5096432;28;20947;-65
2023/05/02 05:48:43;;;;;;;10.37;2.43;;;;;;;12.07;77.00;101145.13;5096240;28;20470;-67
2023/05/02 05:51:09;;;;;;;11.43;3.20;;;;;;;12.17;77.24;101147.66;5096632;28;20475;-68
2023/05/02 05:53:36;;;;;;;7.03;2.77;;;;;;;12.22;77.61;101158.47;5096645;28;20480;-67
2023/05/02 05:56:09;;;;;;;9.90;3.03;;;;;;;12.33;77.36;101161.81;5096569;28;20444;-71
2023/05/02 05:58:38;;;;;;;7.43;2.73;;;;;;;12.25;77.66;101168.72;5096576;28;20460;-67
2023/05/02 06:01:05;;;;;;;14.53;3.63;;;;;;;12.37;77.90;101173.69;5096351;28;20479;-70
2023/05/02 06:03:31;;;;;;;7.87;3.03;;;;;;;12.41;78.42;101177.44;5096480;28;20444;-71
2023/05/02 06:05:58;;;;;;;18.50;4.30;;;;;;;12.52;79.06;101187.00;5096394;28;20444;-72
2023/05/02 06:08:25;;;;;;;9.67;3.60;;;;;;;12.53;80.16;101187.84;5096301;28;20518;-70
2023/05/02 06:10:51;;;;;;;14.10;3.80;;;;;;;12.52;80.34;101197.88;5095970;28;20876;-69
2023/05/02 06:13:18;;;;;;;14.60;5.60;;;;;;;12.65;79.31;101212.59;5096171;28;20529;-68
2023/05/02 06:15:46;;;;;;;11.13;5.17;;;;;;;12.67;79.45;101215.03;5095870;28;21050;-68
2023/05/02 06:18:13;;;;;;;13.00;4.63;;;;;;;12.57;80.16;101205.94;5096009;28;20464;-67
2023/05/02 06:20:40;;;;;;;18.03;3.97;;;;;;;12.56;81.01;101217.91;5095928;28;20483;-66
2023/05/02 06:23:06;;;;;;;11.50;4.17;;;;;;;12.53;81.08;101209.56;5094593;28;20873;-68
2023/05/02 06:25:33;;;;;;;14.70;5.20;;;;;;;12.45;82.33;101219.19;5095899;28;20948;-68
2023/05/02 06:28:00;;;;;;;14.00;4.63;;;;;;;12.47;83.07;101216.19;5095905;28;20460;-68
2023/05/02 06:30:26;;;;;;;10.90;4.80;;;;;;;12.57;82.21;101221.44;5095593;28;20447;-66
2023/05/02 06:32:54;;;;;;;14.20;5.70;;;;;;;12.74;81.68;101237.16;5095919;28;20489;-67
2023/05/02 06:35:21;;;;;;;13.50;5.27;;;;;;;12.73;81.25;101239.09;5095817;28;20543;-68
2023/05/02 06:37:47;;;;;;;12.67;5.17;;;;;;;12.70;81.81;101241.59;5096094;28;20902;-68
2023/05/02 06:40:14;;;;;;;9.30;3.63;;;;;;;12.59;82.22;101255.38;5095596;28;20576;-68
2023/05/02 06:42:41;;;;;;;8.90;4.00;;;;;;;12.61;82.42;101246.91;5095802;28;20450;-68
2023/05/02 06:45:08;;;;;;;11.43;4.17;;;;;;;12.57;82.89;101248.59;5095575;28;20449;-69
2023/05/02 06:47:34;;;;;;;14.70;4.67;;;;;;;12.61;83.02;101255.06;5095459;28;20461;-68
2023/05/02 06:50:03;;;;;;;13.03;4.10;;;;;;;12.75;82.46;101252.38;5095410;28;20519;-69
2023/05/02 06:52:29;;;;;;;11.03;3.80;;;;;;;12.87;82.04;101261.66;5095288;28;20958;-67
2023/05/02 06:54:56;;;;;;;13.17;3.83;;;;;;;13.01;81.81;101269.03;5095470;28;20437;-69
2023/05/02 06:57:24;;;;;;;9.70;4.30;;;;;;;13.08;82.34;101264.00;5095340;28;20889;-67
2023/05/02 06:59:51;;;;;;;10.00;3.90;;;;;;;13.20;81.43;101272.50;5094880;28;20432;-66
2023/05/02 07:02:17;;;;;;;10.50;3.83;;;;;;;13.33;81.02;101277.16;5095123;28;20898;-65
2023/05/02 07:04:44;;;;;;;9.10;3.60;;;;;;;13.51;80.03;101280.88;5095379;28;20531;-65
2023/05/02 07:07:12;;;;;;;9.27;3.63;;;;;;;13.66;78.39;101293.38;5095229;28;20473;-66
2023/05/02 07:09:38;;;;;;;13.70;4.10;;;;;;;13.73;79.14;101295.69;5095196;28;20525;-64
2023/05/02 07:12:05;;;;;;;12.43;3.73;;;;;;;13.87;78.07;101299.19;5094788;28;20445;-64
2023/05/02 07:14:32;;;;;;;9.37;3.73;;;;;;;13.69;79.07;101294.69;5094828;28;20483;-64
2023/05/02 07:16:58;;;;;;;9.30;3.23;;;;;;;13.69;79.79;101300.94;5095034;28;20476;-64
2023/05/02 07:19:25;;;;;;;12.40;3.83;;;;;;;13.77;79.39;101307.59;5094998;28;20439;-66
2023/05/02 07:21:52;;;;;;;10.13;3.10;;;;;;;13.83;79.22;101306.34;5094911;28;20920;-65
2023/05/02 07:24:20;;;;;;;9.83;3.17;;;;;;;13.96;80.04;101299.28;5094923;28;20443;-66
2023/05/02 07:26:46;;;;;;;10.30;3.83;;;;;;;14.10;79.56;101305.50;5094808;28;20527;-66
2023/05/02 07:29:13;;;;;;;10.50;3.97;;;;;;;14.28;78.43;101311.91;5095060;28;20472;-66
2023/05/02 07:31:39;;;;;;;10.30;3.90;;;;;;;14.45;76.92;101311.25;5095269;28;20482;-66
2023/05/02 07:34:06;;;;;;;8.13;2.70;;;;;;;14.56;76.39;101313.41;5094851;28;20477;-67
2023/05/02 07:36:33;;;;;;;9.53;3.63;;;;;;;14.59;75.33;101314.72;5094920;28;20571;-67
2023/05/02 07:38:59;;;;;;;9.03;3.37;;;;;;;14.66;75.12;101320.56;5094825;28;20482;-67
2023/05/02 07:41:27;;;;;;;8.73;3.10;;;;;;;14.58;75.25;101327.56;5094782;28;20480;-66
2023/05/02 07:43:54;;;;;;;10.27;3.00;;;;;;;14.44;75.93;101328.72;5094875;28;20448;-64
2023/05/02 07:46:21;;;;;;;10.13;2.83;;;;;;;14.46;76.17;101329.19;5094635;28;20451;-64
2023/05/02 07:48:47;;;;;;;9.93;3.43;;;;;;;14.43;76.99;101329.81;5094436;28;20474;-64
2023/05/02 07:51:14;;;;;;;8.93;3.23;;;;;;;14.34;76.76;101336.00;5094134;28;20447;-65
2023/05/02 07:53:41;;;;;;;10.60;3.03;;;;;;;14.35;76.65;101345.78;5094327;28;20462;-68
2023/05/02 07:56:08;;;;;;;8.10;2.87;;;;;;;14.50;75.32;101339.22;5094523;28;20447;-68
2023/05/02 07:58:36;;;;;;;9.20;2.53;;;;;;;14.54;75.19;101342.13;5094118;28;20466;-66
2023/05/02 08:01:03;;;;;;;8.43;3.00;;;;;;;14.66;75.20;101344.31;5094165;28;20484;-68
2023/05/02 08:03:30;;;;;;;8.20;2.17;;;;;;;14.81;73.08;101342.00;5094126;28;20523;-67
2023/05/02 08:05:57;;;;;;;6.83;2.30;;;;;;;14.68;72.89;101353.78;5094035;28;20522;-68
2023/05/02 08:08:24;;;;;;;6.27;2.03;;;;;;;14.57;73.76;101353.22;5093904;28;20452;-67
2023/05/02 08:10:50;;;;;;;6.20;1.63;;;;;;;14.71;73.20;101353.16;5093725;28;20978;-67
2023/05/02 08:13:17;;;;;;;4.97;1.30;;;;;;;14.54;73.87;101355.75;5093444;28;20978;-66
2023/05/02 08:15:45;;;;;;;8.37;2.10;;;;;;;14.48;74.32;101367.88;5094099;28;20542;-67
2023/05/02 08:18:12;;;;;;;9.90;2.90;;;;;;;14.57;74.63;101366.84;5094125;28;20538;-67
2023/05/02 08:20:38;;;;;;;7.57;2.30;;;;;;;14.54;74.46;101367.47;5094200;28;20862;-67
2023/05/02 08:23:05;;;;;;;6.43;1.90;;;;;;;14.54;75.41;101362.00;5094059;28;20877;-67
2023/05/02 08:25:32;;;;;;;6.90;2.50;;;;;;;14.67;75.40;101373.97;5093803;28;20493;-67
2023/05/02 08:27:58;;;;;;;8.50;2.20;;;;;;;14.72;75.32;101376.59;5093968;28;20552;-68
2023/05/02 08:30:25;;;;;;;6.37;1.93;;;;;;;14.67;75.58;101384.91;5093984;28;20451;-67
2023/05/02 08:32:53;;;;;;;9.00;2.47;;;;;;;14.59;75.14;101378.25;5094140;28;20449;-67
2023/05/02 08:35:19;;;;;;;8.17;2.33;;;;;;;14.56;75.39;101384.31;5093477;28;20460;-67
2023/05/02 08:37:46;;;;;;;7.93;2.00;;;;;;;14.37;76.31;101386.38;5093862;28;20511;-67
2023/05/02 08:40:14;;;;;;;8.13;2.07;;;;;;;14.41;76.79;101389.28;5093544;28;20490;-68
2023/05/02 08:42:42;;;;;;;7.13;2.47;;;;;;;14.45;77.30;101387.56;5093615;28;20477;-67
2023/05/02 08:45:12;;;;;;;11.60;1.90;;;;;;;14.62;77.11;101401.38;5093477;28;20479;-68
2023/05/02 08:47:40;;;;;;;8.10;2.40;;;;;;;14.85;77.06;101408.44;5092798;28;20467;-67
2023/05/02 08:50:10;;;;;;;5.63;1.50;;;;;;;14.75;75.75;101405.97;5093389;28;20515;-68
2023/05/02 08:52:37;;;;;;;7.10;2.37;;;;;;;14.76;75.29;101414.97;5093316;28;20440;-67
2023/05/02 08:55:05;;;;;;;7.27;1.80;;;;;;;14.75;75.39;101414.16;5093405;28;20440;-67
2023/05/02 08:57:33;;;;;;;7.40;2.17;;;;;;;14.68;76.14;101413.78;5093017;28;20483;-67
2023/05/02 08:59:59;;;;;;;9.30;2.63;;;;;;;14.59;76.80;101423.81;5093126;28;20448;-68
2023/05/02 09:02:40;;;;;;;8.60;2.47;;;;;;;14.46;78.18;101432.78;5093239;28;20580;-67
2023/05/02 09:05:11;;;;;;;6.83;2.00;;;;;;;14.26;78.85;101439.50;5093488;28;20478;-66
2023/05/02 09:07:46;;;;;;;8.10;2.50;;;;;;;13.92;80.89;101443.44;5093111;28;20460;-68
2023/05/02 09:10:13;;;;;;;8.67;2.90;;;;;;;13.77;82.30;101444.53;5092913;28;20450;-67
2023/05/02 09:12:39;;;;;;;7.27;2.20;;;;;;;13.73;83.51;101443.53;5093399;28;20441;-67
2023/05/02 09:15:11;;;;;;;8.70;2.20;;;;;;;13.91;82.11;101454.63;5093348;28;20441;-67
2023/05/02 09:17:44;;;;;;;7.93;2.50;;;;;;;13.89;81.64;101458.44;5093196;28;20448;-67
2023/05/02 09:20:13;;;;;;;7.23;1.90;;;;;;;13.97;81.29;101459.66;5093211;28;20440;-67
2023/05/02 09:22:48;;;;;;;7.83;2.60;;;;;;;14.01;80.86;101465.31;5093053;28;20531;-67
2023/05/02 09:25:15;;;;;;;8.67;2.57;;;;;;;13.90;82.12;101470.19;5093047;28;20430;-67
2023/05/02 09:27:55;;;;;;;10.47;2.33;;;;;;;14.03;81.83;101477.56;5092976;28;20979;-67
2023/05/02 09:30:25;;;;;;;6.67;2.17;;;;;;;14.16;81.26;101467.72;5093208;28;20503;-67
2023/05/02 09:32:54;;;;;;;7.47;2.50;;;;;;;14.36;80.01;101471.97;5092880;28;20436;-67
2023/05/02 09:35:25;;;;;;;7.33;2.40;;;;;;;14.71;79.77;101478.63;5092765;28;20464;-67
2023/05/02 09:37:52;;;;;;;9.83;2.87;;;;;;;14.88;77.59;101483.44;5092689;28;20496;-67
2023/05/02 09:40:20;;;;;;;5.87;1.57;;;;;;;14.93;77.27;101490.69;5093181;28;20441;-67
2023/05/02 09:42:46;;;;;;;6.83;2.37;;;;;;;14.88;77.47;101484.22;5092548;28;20526;-67
2023/05/02 09:45:20;;;;;;;6.70;2.03;;;;;;;14.79;78.23;101485.28;5093010;28;20523;-68
2023/05/02 09:47:47;;;;;;;8.57;2.77;;;;;;;14.71;78.87;101494.16;5092913;28;20464;-67
2023/05/02 09:50:33;;;;;;;7.93;1.90;;;;;;;14.38;80.36;101508.69;5092547;28;20443;-67
2023/05/02 09:53:04;;;;;;;7.97;2.33;;;;;;;14.03;82.77;101504.78;5092904;28;20423;-67
2023/05/02 09:55:31;;;;;;;9.70;3.00;;;;;;;13.94;83.21;101509.28;5092901;28;20527;-67
2023/05/02 09:57:58;;;;;;;6.20;2.13;;;;;;;13.75;84.21;101505.84;5094389;28;20469;-68
2023/05/02 10:00:39;;;;;;;7.17;2.80;;;;;;;13.96;83.41;101514.47;5095948;28;20460;-67
2023/05/02 10:03:07;;;;;;;6.83;1.73;;;;;;;14.06;82.63;101523.25;5096795;28;20471;-67
2023/05/02 10:05:37;;;;;;;6.47;1.80;;;;;;;13.90;82.68;101527.38;5096492;28;20444;-67
2023/05/02 10:08:04;;;;;;;7.77;2.40;;;;;;;13.75;82.76;101527.63;5096396;28;20480;-67
2023/05/02 10:10:33;;;;;;;6.03;1.60;;;;;;;13.60;83.30;101539.59;5096307;28;20440;-67
2023/05/02 10:13:01;;;;;;;6.17;1.63;;;;;;;13.40;83.54;101542.63;5096101;28;20939;-66
2023/05/02 10:15:31;;;;;;;5.70;1.77;;;;;;;13.06;83.83;101555.34;5096381;28;20440;-66
2023/05/02 10:18:00;;;;;;;6.30;1.57;;;;;;;12.71;85.33;101564.00;5096147;28;20500;-68
2023/05/02 10:20:34;;;;;;;6.93;1.73;;;;;;;12.47;87.42;101562.06;5096272;28;20436;-66
2023/05/02 10:23:03;;;;;;;5.13;1.30;;;;;;;12.45;88.26;101574.34;5095939;28;20978;-67
2023/05/02 10:25:30;;;;;;;11.00;1.60;;;;;;;12.35;88.91;101581.53;5096509;28;20452;-67
2023/05/02 10:27:58;;;;;;;6.03;2.07;;;;;;;12.28;88.74;101582.94;5095950;28;20496;-66
2023/05/02 10:30:25;;;;;;;6.97;2.70;;;;;;;12.27;88.89;101592.22;5096192;28;20444;-67
2023/05/02 10:32:53;;;;;;;6.37;1.90;;;;;;;11.98;90.05;101594.91;5096300;28;21009;-67
2023/05/02 10:35:21;;;;;;;7.30;2.47;;;;;;;12.15;89.72;101589.88;5096239;28;20455;-67
2023/05/02 10:37:48;;;;;;;9.00;2.87;;;;;;;12.14;88.53;101603.75;5096125;28;20456;-66
2023/05/02 10:40:16;;;;;;;12.20;3.30;;;;;;;12.02;88.00;101604.91;5096329;28;20441;-67
2023/05/02 10:42:45;;;;;;;9.33;2.93;;;;;;;11.85;88.71;101618.09;5095999;28;21096;-66
2023/05/02 10:45:13;;;;;;;12.43;3.73;;;;;;;11.84;88.26;101611.06;5095924;28;20468;-67
2023/05/02 10:47:40;;;;;;;11.63;3.53;;;;;;;11.79;87.29;101627.34;5095853;28;20471;-67
2023/05/02 10:50:08;;;;;;;9.47;3.00;;;;;;;11.79;85.49;101622.72;5095954;28;20487;-67
2023/05/02 10:52:36;;;;;;;8.73;3.30;;;;;;;11.90;84.21;101634.34;5095826;28;20832;-66
2023/05/02 10:55:22;;;;;;;10.50;3.33;;;;;;;11.80;83.40;101627.06;5095628;28;20459;-66
2023/05/02 10:58:23;;;;;;;13.03;2.73;;;;;;;12.00;81.97;101626.13;5095327;28;20470;-66
2023/05/02 11:00:49;;;;;;;5.80;1.87;;;;;;;12.19;78.22;101625.41;5096119;28;20490;-66
2023/05/02 11:03:55;;;;;;;7.30;2.13;;;;;;;12.47;77.45;101634.63;5095465;28;20574;-67
2023/05/02 11:06:22;;;;;;;8.70;2.77;;;;;;;12.53;75.20;101639.75;5095660;28;20432;-65
2023/05/02 11:08:48;;;;;;;7.70;1.80;;;;;;;12.55;71.59;101644.88;5094555;28;20543;-67
2023/05/02 11:11:43;;;;;;;6.47;1.90;;;;;;;12.47;71.50;101650.94;5095630;28;20868;-67
2023/05/02 11:14:10;;;;;;;7.33;2.20;;;;;;;12.45;71.56;101643.09;5095466;28;20523;-67
2023/05/02 11:17:08;;;;;;;5.97;1.90;;;;;;;12.50;72.79;101645.75;5094853;28;20444;-67
2023/05/02 11:20:24;;;;;;;7.90;2.20;;;;;;;12.57;71.42;101646.22;5095166;28;20480;-66
2023/05/02 11:22:52;;;;;;;10.50;2.10;;;;;;;12.70;69.94;101649.34;5094742;28;20530;-66
2023/05/02 11:25:38;;;;;;;6.70;2.00;;;;;;;12.69;69.65;101645.81;5095310;28;20479;-67
2023/05/02 11:28:28;;;;;;;8.10;1.77;;;;;;;12.66;70.65;101651.00;5095003;28;20504;-66
2023/05/02 11:30:54;;;;;;;9.07;2.40;;;;;;;12.66;68.78;101654.56;5094561;28;20447;-66